createdAt,value
2022-09-07T00:00:45.079Z,19.29
2022-09-07T00:03:34.345Z,19.36
2022-09-07T00:06:21.425Z,19.29
2022-09-07T00:09:08.303Z,19.25
2022-09-07T00:11:55.192Z,19.21
2022-09-07T00:14:42.093Z,19.24
2022-09-07T00:17:31.345Z,19.16
2022-09-07T00:20:18.615Z,19.02
2022-09-07T00:23:05.644Z,19.06
2022-09-07T00:25:54.219Z,18.98
2022-09-07T00:28:42.750Z,18.94
2022-09-07T00:31:31.055Z,18.92
2022-09-07T00:34:17.987Z,18.89
2022-09-07T00:37:07.872Z,19.05
2022-09-07T00:39:54.832Z,18.96
2022-09-07T00:42:41.734Z,18.98
2022-09-07T00:45:29.216Z,18.81
2022-09-07T00:48:18.799Z,18.78
2022-09-07T00:51:09.790Z,18.83
2022-09-07T00:54:28.396Z,18.92
2022-09-07T00:57:15.644Z,18.85
2022-09-07T01:00:04.723Z,18.58
2022-09-07T01:02:55.597Z,18.63
2022-09-07T01:05:50.636Z,18.61
2022-09-07T01:08:42.093Z,18.61
2022-09-07T01:11:31.566Z,18.60
2022-09-07T01:14:31.885Z,18.60
2022-09-07T01:17:38.639Z,18.58
2022-09-07T01:20:36.452Z,18.53
2022-09-07T01:23:55.494Z,18.54
2022-09-07T01:27:19.495Z,18.64
2022-09-07T01:30:16.376Z,18.53
2022-09-07T01:33:16.988Z,18.49
2022-09-07T01:36:18.338Z,18.57
2022-09-07T01:39:06.211Z,18.57
2022-09-07T01:42:00.946Z,18.44
2022-09-07T01:45:00.805Z,18.48
2022-09-07T01:47:53.730Z,18.40
2022-09-07T01:50:47.557Z,18.19
2022-09-07T01:53:39.964Z,18.35
2022-09-07T01:56:33.036Z,18.23
2022-09-07T01:59:42.882Z,18.25
2022-09-07T02:02:34.316Z,18.21
2022-09-07T02:05:48.215Z,18.30
2022-09-07T02:08:47.647Z,18.27
2022-09-07T02:11:44.483Z,18.17
2022-09-07T02:14:36.708Z,18.23
2022-09-07T02:17:34.209Z,18.15
2022-09-07T02:20:32.079Z,18.16
2022-09-07T02:23:25.210Z,18.15
2022-09-07T02:26:20.912Z,18.21
2022-09-07T02:29:08.286Z,17.96
2022-09-07T02:31:57.548Z,18.07
2022-09-07T02:34:24.497Z,18.00
2022-09-07T02:36:53.034Z,18.09
2022-09-07T02:39:20.003Z,18.06
2022-09-07T02:41:47.034Z,18.07
2022-09-07T02:44:17.414Z,18.08
2022-09-07T02:47:19.513Z,18.00
2022-09-07T02:49:58.111Z,18.09
2022-09-07T02:52:27.566Z,18.00
2022-09-07T02:55:23.408Z,17.97
2022-09-07T02:58:13.011Z,18.02
2022-09-07T03:00:50.294Z,17.94
2022-09-07T03:03:45.138Z,17.89
2022-09-07T03:06:24.047Z,17.96
2022-09-07T03:08:55.343Z,17.78
2022-09-07T03:11:27.722Z,17.95
2022-09-07T03:14:11.664Z,18.00
2022-09-07T03:16:38.232Z,17.98
2022-09-07T03:19:05.128Z,17.98
2022-09-07T03:21:32.089Z,17.93
2022-09-07T03:24:03.292Z,17.97
2022-09-07T03:26:29.918Z,17.97
2022-09-07T03:28:59.708Z,18.02
2022-09-07T03:31:31.291Z,17.99
2022-09-07T03:34:02.656Z,17.89
2022-09-07T03:36:34.885Z,17.82
2022-09-07T03:39:01.567Z,17.71
2022-09-07T03:41:28.683Z,17.77
2022-09-07T03:44:02.079Z,17.78
2022-09-07T03:46:28.692Z,17.78
2022-09-07T03:48:55.271Z,17.90
2022-09-07T03:51:21.832Z,18.04
2022-09-07T03:53:51.171Z,18.08
2022-09-07T03:56:23.124Z,18.06
2022-09-07T03:58:50.831Z,18.02
2022-09-07T04:01:24.488Z,18.02
2022-09-07T04:03:52.278Z,17.94
2022-09-07T04:06:19.639Z,17.90
2022-09-07T04:08:46.591Z,17.89
2022-09-07T04:11:16.065Z,17.90
2022-09-07T04:13:45.387Z,17.95
2022-09-07T04:16:21.475Z,18.07
2022-09-07T04:18:50.375Z,18.14
2022-09-07T04:21:21.518Z,18.26
2022-09-07T04:23:51.052Z,18.36
2022-09-07T04:26:27.884Z,18.44
2022-09-07T04:28:57.905Z,18.49
2022-09-07T04:31:27.463Z,18.42
2022-09-07T04:33:56.634Z,18.41
2022-09-07T04:36:25.551Z,18.32
2022-09-07T04:38:57.087Z,18.30
2022-09-07T04:41:23.759Z,18.28
2022-09-07T04:43:55.057Z,18.11
2022-09-07T04:46:27.349Z,18.16
2022-09-07T04:48:59.393Z,18.24
2022-09-07T04:51:28.789Z,18.38
2022-09-07T04:54:02.050Z,18.51
2022-09-07T04:56:29.456Z,18.66
2022-09-07T04:59:01.313Z,18.69
2022-09-07T05:01:28.370Z,18.77
2022-09-07T05:03:55.179Z,18.84
2022-09-07T05:06:27.069Z,19.04
2022-09-07T05:08:54.585Z,19.08
2022-09-07T05:11:28.446Z,19.14
2022-09-07T05:13:59.578Z,19.28
2022-09-07T05:16:29.781Z,19.24
2022-09-07T05:19:01.762Z,19.29
2022-09-07T05:21:33.819Z,19.42
2022-09-07T05:24:01.831Z,19.43
2022-09-07T05:26:36.264Z,19.39
2022-09-07T05:31:54.899Z,19.57
2022-09-07T05:36:57.668Z,19.66
2022-09-07T05:39:24.452Z,19.47
2022-09-07T05:41:53.947Z,19.41
2022-09-07T05:47:10.391Z,19.43
2022-09-07T05:49:41.842Z,19.36
2022-09-07T05:52:11.335Z,19.44
2022-09-07T05:54:37.892Z,19.51
2022-09-07T05:57:11.304Z,19.67
2022-09-07T05:59:40.123Z,19.51
2022-09-07T06:02:09.581Z,19.92
2022-09-07T06:04:36.202Z,20.36
2022-09-07T06:07:21.254Z,20.48
2022-09-07T06:12:37.457Z,19.90
2022-09-07T06:15:06.892Z,19.94
2022-09-07T06:17:38.359Z,20.06
2022-09-07T06:20:06.728Z,20.30
2022-09-07T06:22:40.121Z,20.60
2022-09-07T06:25:06.941Z,20.87
2022-09-07T06:27:33.832Z,21.25
2022-09-07T06:30:02.739Z,21.04
2022-09-07T06:32:47.093Z,21.41
2022-09-07T06:35:14.721Z,21.56
2022-09-07T06:37:41.390Z,21.93
2022-09-07T06:40:10.862Z,21.70
2022-09-07T06:42:44.869Z,21.89
2022-09-07T06:45:15.042Z,21.77
2022-09-07T06:47:44.031Z,21.72
2022-09-07T06:50:10.653Z,22.01
2022-09-07T06:55:26.163Z,22.03
2022-09-07T06:57:54.852Z,22.32
2022-09-07T07:00:23.921Z,22.45
2022-09-07T07:02:50.658Z,22.76
2022-09-07T07:05:19.726Z,23.31
2022-09-07T07:07:46.297Z,23.50
2022-09-07T07:10:13.015Z,23.68
2022-09-07T07:15:08.786Z,24.69
2022-09-07T07:17:37.694Z,24.24
2022-09-07T07:20:07.433Z,23.91
2022-09-07T07:22:49.176Z,23.70
2022-09-07T07:25:19.054Z,23.88
2022-09-07T07:27:48.327Z,24.00
2022-09-07T07:30:16.293Z,24.70
2022-09-07T07:32:43.598Z,25.38
2022-09-07T07:35:11.181Z,27.81
2022-09-07T07:37:37.797Z,29.43
2022-09-07T07:42:39.820Z,33.26
2022-09-07T07:47:56.998Z,31.90
2022-09-07T07:50:31.713Z,33.68
2022-09-07T07:55:54.224Z,39.04
2022-09-07T07:58:22.956Z,40.87
2022-09-07T08:00:57.332Z,38.75
2022-09-07T08:03:27.319Z,39.81
2022-09-07T08:05:57.195Z,40.56
2022-09-07T08:08:24.226Z,37.98
2022-09-07T08:10:50.856Z,38.89
2022-09-07T08:13:21.363Z,40.02
2022-09-07T08:15:50.633Z,42.44
2022-09-07T08:18:17.792Z,41.89
2022-09-07T08:20:46.383Z,43.69
2022-09-07T08:23:14.624Z,45.19
2022-09-07T08:25:54.580Z,46.05
2022-09-07T08:28:27.996Z,44.39
2022-09-07T08:30:55.589Z,45.73
2022-09-07T08:33:29.049Z,45.11
2022-09-07T08:36:01.932Z,45.47
2022-09-07T08:38:32.424Z,45.72
2022-09-07T08:41:00.043Z,46.94
2022-09-07T08:43:30.188Z,46.54
2022-09-07T08:46:04.106Z,46.54
2022-09-07T08:48:36.801Z,45.81
2022-09-07T08:51:09.332Z,47.54
2022-09-07T08:53:45.644Z,47.88
2022-09-07T08:56:33.953Z,48.80
2022-09-07T08:59:15.055Z,48.68
2022-09-07T09:02:26.319Z,49.27
2022-09-07T09:05:16.204Z,50.75
2022-09-07T09:07:56.405Z,50.74
2022-09-07T09:10:36.769Z,50.37
2022-09-07T09:13:09.519Z,51.09
2022-09-07T09:15:46.668Z,50.19
2022-09-07T09:18:25.567Z,48.55
2022-09-07T09:20:53.648Z,48.53
2022-09-07T09:23:25.700Z,49.83
2022-09-07T09:25:59.343Z,51.65
2022-09-07T09:28:28.818Z,53.16
2022-09-07T09:30:58.419Z,54.04
2022-09-07T09:33:28.923Z,52.65
2022-09-07T09:35:56.727Z,51.96
2022-09-07T09:38:33.279Z,52.34
2022-09-07T09:41:08.808Z,51.90
2022-09-07T09:43:46.340Z,53.02
2022-09-07T09:46:21.162Z,53.62
2022-09-07T09:48:53.774Z,53.75
2022-09-07T09:54:34.430Z,48.90
2022-09-07T09:57:03.828Z,48.13
2022-09-07T10:05:29.891Z,41.32
2022-09-07T10:07:59.026Z,38.75
2022-09-07T10:10:32.179Z,46.34
2022-09-07T10:12:58.686Z,43.95
2022-09-07T10:15:29.655Z,50.51
2022-09-07T10:17:59.317Z,50.40
2022-09-07T10:20:35.134Z,48.56
2022-09-07T10:23:02.968Z,47.24
2022-09-07T10:25:39.584Z,45.11
2022-09-07T10:28:12.730Z,43.22
2022-09-07T10:30:53.675Z,48.81
2022-09-07T10:33:28.970Z,51.68
2022-09-07T10:36:14.892Z,54.10
2022-09-07T10:38:49.717Z,52.71
2022-09-07T10:41:24.008Z,50.47
2022-09-07T10:43:51.849Z,52.21
2022-09-07T10:49:34.777Z,45.39
2022-09-07T10:52:18.278Z,40.42
2022-09-07T10:54:58.154Z,37.32
2022-09-07T10:58:00.008Z,35.61
2022-09-07T11:00:34.451Z,36.01
2022-09-07T11:03:27.903Z,36.17
2022-09-07T11:06:24.268Z,35.22
2022-09-07T11:09:19.742Z,34.19
2022-09-07T11:12:01.444Z,33.57
2022-09-07T11:14:31.375Z,32.33
2022-09-07T11:17:07.730Z,32.25
2022-09-07T11:19:43.276Z,32.04
2022-09-07T11:22:24.344Z,32.33
2022-09-07T11:27:55.948Z,32.55
2022-09-07T11:30:50.223Z,32.26
2022-09-07T11:33:22.795Z,32.44
2022-09-07T11:35:52.240Z,31.65
2022-09-07T11:38:28.036Z,32.86
2022-09-07T11:41:12.581Z,33.18
2022-09-07T11:43:47.064Z,32.94
2022-09-07T11:46:20.395Z,32.79
2022-09-07T11:48:55.441Z,32.79
2022-09-07T11:51:30.911Z,32.08
2022-09-07T11:54:23.691Z,31.36
2022-09-07T11:57:11.932Z,30.92
2022-09-07T11:59:50.441Z,31.05
2022-09-07T12:03:00.537Z,30.94
2022-09-07T12:05:41.434Z,31.09
2022-09-07T12:08:18.505Z,30.84
2022-09-07T12:10:57.440Z,30.98
2022-09-07T12:13:47.646Z,31.05
2022-09-07T12:16:29.434Z,30.97
2022-09-07T12:19:03.785Z,30.83
2022-09-07T12:22:01.360Z,30.84
2022-09-07T12:24:43.089Z,31.14
2022-09-07T12:27:21.937Z,30.61
2022-09-07T12:30:11.402Z,30.72
2022-09-07T12:32:55.314Z,30.96
2022-09-07T12:35:41.878Z,30.90
2022-09-07T12:38:17.523Z,31.14
2022-09-07T12:41:01.407Z,31.41
2022-09-07T12:43:27.931Z,31.54
2022-09-07T12:45:57.996Z,31.55
2022-09-07T12:49:04.665Z,31.30
2022-09-07T12:54:31.740Z,30.65
2022-09-07T13:00:01.648Z,30.69
2022-09-07T13:02:30.945Z,30.55
2022-09-07T13:05:42.405Z,31.08
2022-09-07T13:08:23.419Z,30.61
2022-09-07T13:10:54.447Z,30.65
2022-09-07T13:16:29.793Z,30.56
2022-09-07T13:18:57.065Z,30.84
2022-09-07T13:21:48.673Z,30.77
2022-09-07T13:27:58.606Z,30.18
2022-09-07T13:30:31.264Z,29.92
2022-09-07T13:33:24.957Z,29.97
2022-09-07T13:35:56.762Z,29.93
2022-09-07T13:38:26.472Z,29.72
2022-09-07T13:41:04.257Z,29.55
2022-09-07T13:43:33.273Z,29.64
2022-09-07T13:46:08.080Z,29.63
2022-09-07T13:48:43.406Z,29.69
2022-09-07T13:51:31.040Z,29.70
2022-09-07T13:54:07.339Z,29.68
2022-09-07T13:56:52.111Z,29.72
2022-09-07T13:59:34.822Z,29.74
2022-09-07T14:02:06.013Z,29.83
2022-09-07T14:04:39.224Z,29.92
2022-09-07T14:07:16.967Z,29.87
2022-09-07T14:09:43.409Z,29.67
2022-09-07T14:12:21.979Z,29.54
2022-09-07T14:15:16.984Z,29.49
2022-09-07T14:17:44.855Z,29.50
2022-09-07T14:20:15.975Z,29.50
2022-09-07T14:22:43.350Z,29.50
2022-09-07T14:25:22.085Z,29.27
2022-09-07T14:27:49.363Z,29.20
2022-09-07T14:30:15.774Z,29.22
2022-09-07T14:32:48.464Z,29.33
2022-09-07T14:35:20.942Z,29.45
2022-09-07T14:37:51.762Z,29.15
2022-09-07T14:40:24.183Z,29.27
2022-09-07T14:42:53.320Z,29.15
2022-09-07T14:45:22.752Z,29.27
2022-09-07T14:47:56.469Z,29.32
2022-09-07T14:50:31.028Z,29.20
2022-09-07T14:56:03.335Z,28.96
2022-09-07T14:58:32.310Z,28.98
2022-09-07T15:04:18.020Z,28.96
2022-09-07T15:07:02.151Z,29.11
2022-09-07T15:09:37.637Z,29.17
2022-09-07T15:12:17.607Z,29.17
2022-09-07T15:14:44.782Z,29.00
2022-09-07T15:17:49.993Z,28.95
2022-09-07T15:20:40.094Z,28.91
2022-09-07T15:23:20.122Z,28.81
2022-09-07T15:25:52.210Z,28.73
2022-09-07T15:34:10.250Z,28.71
2022-09-07T15:36:46.775Z,28.63
2022-09-07T15:39:25.305Z,28.52
2022-09-07T15:42:59.006Z,28.60
2022-09-07T15:44:50.658Z,28.55
2022-09-07T15:50:08.238Z,28.65
2022-09-07T15:52:34.899Z,28.52
2022-09-07T15:55:04.023Z,28.46
2022-09-07T15:57:49.233Z,28.35
2022-09-07T16:00:18.552Z,28.30
2022-09-07T16:03:09.033Z,28.15
2022-09-07T16:05:39.906Z,28.18
2022-09-07T16:10:53.917Z,28.06
2022-09-07T16:13:25.302Z,27.91
2022-09-07T16:15:51.890Z,27.85
2022-09-07T16:18:18.841Z,27.80
2022-09-07T16:20:52.457Z,27.76
2022-09-07T16:23:21.739Z,27.68
2022-09-07T16:26:01.245Z,27.57
2022-09-07T16:28:28.871Z,27.49
2022-09-07T16:30:56.312Z,27.41
2022-09-07T16:33:29.153Z,27.11
2022-09-07T16:36:07.322Z,27.23
2022-09-07T16:38:49.367Z,27.16
2022-09-07T16:41:26.358Z,27.08
2022-09-07T16:43:55.607Z,26.81
2022-09-07T16:46:25.497Z,26.89
2022-09-07T16:48:52.180Z,26.84
2022-09-07T16:51:21.201Z,26.87
2022-09-07T16:53:49.633Z,26.89
2022-09-07T16:56:24.142Z,26.84
2022-09-07T16:58:52.981Z,26.65
2022-09-07T17:01:21.862Z,26.60
2022-09-07T17:03:49.500Z,26.63
2022-09-07T17:06:20.728Z,26.60
2022-09-07T17:08:47.797Z,26.56
2022-09-07T17:11:18.854Z,26.49
2022-09-07T17:13:46.144Z,26.41
2022-09-07T17:16:15.147Z,26.33
2022-09-07T17:21:31.345Z,26.17
2022-09-07T17:23:59.830Z,26.11
2022-09-07T17:26:27.145Z,26.09
2022-09-07T17:28:56.662Z,26.07
2022-09-07T17:34:20.032Z,25.92
2022-09-07T17:36:51.570Z,25.87
2022-09-07T17:39:20.515Z,25.76
2022-09-07T17:41:55.010Z,25.69
2022-09-07T17:44:23.250Z,25.56
2022-09-07T17:46:50.080Z,25.47
2022-09-07T17:49:18.783Z,25.39
2022-09-07T17:51:45.622Z,25.33
2022-09-07T17:54:15.627Z,25.21
2022-09-07T17:56:42.765Z,25.08
2022-09-07T18:02:01.129Z,24.89
2022-09-07T18:04:28.542Z,25.00
2022-09-07T18:06:57.789Z,24.98
2022-09-07T18:09:31.387Z,24.95
2022-09-07T18:11:57.814Z,24.96
2022-09-07T18:14:24.371Z,24.96
2022-09-07T18:16:51.183Z,24.91
2022-09-07T18:19:18.853Z,24.90
2022-09-07T18:21:47.659Z,24.77
2022-09-07T18:24:19.421Z,24.71
2022-09-07T18:26:52.076Z,24.57
2022-09-07T18:29:29.847Z,24.66
2022-09-07T18:32:02.983Z,24.76
2022-09-07T18:34:31.713Z,24.82
2022-09-07T18:36:59.570Z,24.74
2022-09-07T18:39:27.011Z,24.67
2022-09-07T18:41:54.432Z,24.64
2022-09-07T18:47:08.608Z,24.54
2022-09-07T18:49:35.293Z,24.46
2022-09-07T18:54:48.712Z,24.27
2022-09-07T18:57:15.563Z,24.18
2022-09-07T18:59:42.060Z,24.03
2022-09-07T19:02:11.133Z,23.97
2022-09-07T19:07:29.898Z,23.76
2022-09-07T19:09:58.808Z,23.81
2022-09-07T19:12:25.276Z,23.88
2022-09-07T19:14:51.769Z,23.91
2022-09-07T19:17:21.082Z,23.94
2022-09-07T19:19:48.437Z,23.97
2022-09-07T19:22:14.861Z,23.89
2022-09-07T19:24:41.292Z,23.81
2022-09-07T19:27:07.717Z,23.65
2022-09-07T19:29:36.272Z,23.42
2022-09-07T19:32:06.751Z,23.38
2022-09-07T19:34:34.332Z,23.44
2022-09-07T19:37:01.453Z,23.35
2022-09-07T19:39:28.409Z,23.34
2022-09-07T19:41:59.912Z,23.36
2022-09-07T19:44:26.421Z,23.30
2022-09-07T19:46:55.568Z,23.27
2022-09-07T19:49:23.199Z,23.17
2022-09-07T19:51:52.155Z,23.14
2022-09-07T19:54:18.965Z,23.05
2022-09-07T19:56:45.590Z,22.98
2022-09-07T19:59:12.466Z,22.91
2022-09-07T20:01:40.509Z,22.93
2022-09-07T20:04:10.624Z,23.02
2022-09-07T20:06:39.273Z,22.93
2022-09-07T20:09:08.324Z,22.93
2022-09-07T20:11:35.780Z,22.88
2022-09-07T20:14:03.264Z,22.80
2022-09-07T20:16:31.008Z,22.80
2022-09-07T20:18:58.797Z,22.79
2022-09-07T20:21:30.178Z,22.66
2022-09-07T20:23:56.634Z,22.64
2022-09-07T20:26:25.500Z,22.57
2022-09-07T20:29:16.422Z,22.64
2022-09-07T20:31:46.695Z,22.72
2022-09-07T20:34:15.956Z,22.77
2022-09-07T20:36:42.407Z,22.72
2022-09-07T20:39:15.665Z,22.79
2022-09-07T20:41:42.369Z,22.81
2022-09-07T20:44:11.412Z,22.86
2022-09-07T20:46:38.438Z,22.68
2022-09-07T20:49:05.261Z,22.75
2022-09-07T20:51:34.159Z,22.74
2022-09-07T20:54:02.927Z,22.80
2022-09-07T20:56:29.549Z,22.80
2022-09-07T20:59:02.161Z,22.94
2022-09-07T21:01:30.803Z,23.04
2022-09-07T21:04:15.948Z,23.15
2022-09-07T21:07:05.313Z,23.08
2022-09-07T21:09:52.142Z,22.95
2022-09-07T21:12:38.979Z,22.89
2022-09-07T21:15:25.764Z,22.89
2022-09-07T21:18:16.949Z,22.96
2022-09-07T21:21:19.201Z,22.93
2022-09-07T21:24:15.800Z,22.97
2022-09-07T21:27:05.434Z,22.80
2022-09-07T21:29:52.212Z,22.81
2022-09-07T21:32:40.300Z,22.82
2022-09-07T21:35:27.067Z,22.80
2022-09-07T21:38:13.852Z,22.72
2022-09-07T21:41:09.106Z,22.74
2022-09-07T21:44:01.021Z,22.68
2022-09-07T21:46:47.827Z,22.74
2022-09-07T21:49:34.617Z,22.72
2022-09-07T21:52:21.397Z,22.66
2022-09-07T21:55:11.387Z,22.66
2022-09-07T21:57:58.222Z,22.46
2022-09-07T22:00:47.469Z,22.26
2022-09-07T22:03:34.400Z,22.40
2022-09-07T22:06:21.616Z,22.41
2022-09-07T22:09:08.556Z,22.24
2022-09-07T22:11:55.327Z,22.26
2022-09-07T22:14:43.400Z,22.15
2022-09-07T22:17:32.204Z,22.29
2022-09-07T22:20:19.536Z,22.38
2022-09-07T22:23:06.368Z,22.44
2022-09-07T22:25:53.307Z,22.50
2022-09-07T22:28:40.442Z,22.45
2022-09-07T22:31:30.284Z,22.43
2022-09-07T22:34:17.320Z,22.38
2022-09-07T22:37:04.125Z,22.39
2022-09-07T22:39:51.293Z,22.40
2022-09-07T22:42:39.021Z,22.36
2022-09-07T22:45:25.772Z,22.42
2022-09-07T22:48:17.233Z,22.36
2022-09-07T22:51:05.227Z,22.11
2022-09-07T22:53:52.854Z,22.23
2022-09-07T22:56:39.719Z,22.26
2022-09-07T22:59:30.881Z,22.22
2022-09-07T23:02:19.817Z,22.19
2022-09-07T23:05:07.123Z,22.21
2022-09-07T23:07:53.922Z,22.24
2022-09-07T23:10:40.695Z,22.26
2022-09-07T23:13:32.115Z,22.22
2022-09-07T23:16:21.805Z,22.24
2022-09-07T23:19:13.558Z,22.04
2022-09-07T23:22:00.656Z,22.11
2022-09-07T23:24:49.877Z,22.12
2022-09-07T23:27:39.063Z,22.02
2022-09-07T23:30:27.934Z,22.08
2022-09-07T23:33:15.384Z,22.06
2022-09-07T23:36:04.546Z,21.97
2022-09-07T23:38:54.346Z,21.95
2022-09-07T23:41:41.465Z,21.96
2022-09-07T23:44:28.299Z,22.07
2022-09-07T23:47:15.288Z,22.00
2022-09-07T23:50:02.101Z,22.02
2022-09-07T23:52:49.020Z,22.02
2022-09-07T23:55:38.850Z,22.05
2022-09-07T23:58:28.285Z,21.89
